Terminal Aerodrome Forecast
Issued by NWS Milwaukee/Sullivan, WI

Home | Current Version | Previous Version | Text Only | Print | Product List | Glossary On
Versions: 1 2 3 4 5 6 7 8 9 10 11 12 13 14 15 16 17 18 19 20 21 22 23 24 25 26 27 28 29 30
000
FTUS43 KMKX 061458 AAA
TAFMKE
TAF AMD
KMKE 061458Z 0615/0718 13007KT 6SM BR BKN015
     FM061600 20005KT 6SM BR BKN010
     FM062100 26009KT P6SM BKN030
     FM062300 26011G20KT P6SM SCT025
     FM071300 26012G23KT P6SM BKN020=

USA.gov is the U.S. government's official web portal to all federal, state and local government web resources and services.